sensor_id;sensor_type;location;lat;lon;timestamp;P1;durP1;ratioP1;P2;durP2;ratioP2
66189;SDS011;52992;52.084;5.412;2022-08-19T00:01:33;4.97;;;4.30;;
66189;SDS011;52992;52.084;5.412;2022-08-19T00:04:05;5.03;;;4.03;;
66189;SDS011;52992;52.084;5.412;2022-08-19T00:06:35;4.80;;;4.30;;
66189;SDS011;52992;52.084;5.412;2022-08-19T00:09:04;4.73;;;4.30;;
66189;SDS011;52992;52.084;5.412;2022-08-19T00:11:33;5.73;;;4.60;;
66189;SDS011;52992;52.084;5.412;2022-08-19T00:14:03;4.00;;;3.63;;
66189;SDS011;52992;52.084;5.412;2022-08-19T00:16:32;6.27;;;4.20;;
66189;SDS011;52992;52.084;5.412;2022-08-19T00:18:59;5.90;;;4.30;;
66189;SDS011;52992;52.084;5.412;2022-08-19T00:21:26;4.20;;;3.37;;
66189;SDS011;52992;52.084;5.412;2022-08-19T00:23:54;4.07;;;3.77;;
66189;SDS011;52992;52.084;5.412;2022-08-19T00:26:27;4.30;;;3.90;;
66189;SDS011;52992;52.084;5.412;2022-08-19T00:28:54;4.33;;;3.50;;
66189;SDS011;52992;52.084;5.412;2022-08-19T00:31:21;7.03;;;4.03;;
66189;SDS011;52992;52.084;5.412;2022-08-19T00:33:48;4.13;;;3.70;;
66189;SDS011;52992;52.084;5.412;2022-08-19T00:36:16;4.17;;;3.77;;
66189;SDS011;52992;52.084;5.412;2022-08-19T00:38:43;4.10;;;3.70;;
66189;SDS011;52992;52.084;5.412;2022-08-19T00:41:15;4.53;;;4.17;;
66189;SDS011;52992;52.084;5.412;2022-08-19T00:43:49;4.90;;;4.50;;
66189;SDS011;52992;52.084;5.412;2022-08-19T00:46:23;5.10;;;4.60;;
66189;SDS011;52992;52.084;5.412;2022-08-19T00:48:50;5.37;;;3.93;;
66189;SDS011;52992;52.084;5.412;2022-08-19T00:51:17;5.00;;;4.50;;
66189;SDS011;52992;52.084;5.412;2022-08-19T00:53:44;4.03;;;3.60;;
66189;SDS011;52992;52.084;5.412;2022-08-19T00:56:11;7.70;;;4.17;;
66189;SDS011;52992;52.084;5.412;2022-08-19T00:58:37;4.07;;;3.67;;
66189;SDS011;52992;52.084;5.412;2022-08-19T01:01:06;4.47;;;3.90;;
66189;SDS011;52992;52.084;5.412;2022-08-19T01:03:34;4.30;;;3.90;;
66189;SDS011;52992;52.084;5.412;2022-08-19T01:06:21;5.13;;;4.30;;
66189;SDS011;52992;52.084;5.412;2022-08-19T01:08:48;4.67;;;4.17;;
66189;SDS011;52992;52.084;5.412;2022-08-19T01:11:15;6.70;;;4.30;;
66189;SDS011;52992;52.084;5.412;2022-08-19T01:13:43;7.20;;;4.10;;
66189;SDS011;52992;52.084;5.412;2022-08-19T01:16:15;4.20;;;3.80;;
66189;SDS011;52992;52.084;5.412;2022-08-19T01:18:44;4.27;;;3.80;;
66189;SDS011;52992;52.084;5.412;2022-08-19T01:21:22;4.20;;;3.73;;
66189;SDS011;52992;52.084;5.412;2022-08-19T01:23:51;4.80;;;4.00;;
66189;SDS011;52992;52.084;5.412;2022-08-19T01:26:19;3.90;;;3.50;;
66189;SDS011;52992;52.084;5.412;2022-08-19T01:28:50;3.43;;;3.13;;
66189;SDS011;52992;52.084;5.412;2022-08-19T01:31:22;4.33;;;3.20;;
66189;SDS011;52992;52.084;5.412;2022-08-19T01:33:53;5.00;;;3.50;;
66189;SDS011;52992;52.084;5.412;2022-08-19T01:38:57;5.00;;;3.83;;
66189;SDS011;52992;52.084;5.412;2022-08-19T01:41:25;4.23;;;3.83;;
66189;SDS011;52992;52.084;5.412;2022-08-19T01:43:53;4.67;;;4.27;;
66189;SDS011;52992;52.084;5.412;2022-08-19T01:46:40;4.27;;;3.87;;
66189;SDS011;52992;52.084;5.412;2022-08-19T01:49:07;4.87;;;3.70;;
66189;SDS011;52992;52.084;5.412;2022-08-19T01:51:36;4.60;;;4.20;;
66189;SDS011;52992;52.084;5.412;2022-08-19T01:54:06;5.93;;;4.93;;
66189;SDS011;52992;52.084;5.412;2022-08-19T01:56:38;7.23;;;4.83;;
66189;SDS011;52992;52.084;5.412;2022-08-19T01:59:08;5.63;;;5.00;;
66189;SDS011;52992;52.084;5.412;2022-08-19T02:01:38;6.50;;;4.87;;
66189;SDS011;52992;52.084;5.412;2022-08-19T02:04:05;5.77;;;4.70;;
66189;SDS011;52992;52.084;5.412;2022-08-19T02:06:33;5.93;;;4.53;;
66189;SDS011;52992;52.084;5.412;2022-08-19T02:09:00;6.17;;;4.83;;
66189;SDS011;52992;52.084;5.412;2022-08-19T02:11:28;6.33;;;4.27;;
66189;SDS011;52992;52.084;5.412;2022-08-19T02:13:58;4.93;;;4.13;;
66189;SDS011;52992;52.084;5.412;2022-08-19T02:16:26;4.40;;;4.00;;
66189;SDS011;52992;52.084;5.412;2022-08-19T02:18:52;6.60;;;3.90;;
66189;SDS011;52992;52.084;5.412;2022-08-19T02:21:21;4.30;;;3.80;;
66189;SDS011;52992;52.084;5.412;2022-08-19T02:23:50;4.30;;;3.80;;
66189;SDS011;52992;52.084;5.412;2022-08-19T02:26:17;3.73;;;3.43;;
66189;SDS011;52992;52.084;5.412;2022-08-19T02:28:45;4.43;;;4.00;;
66189;SDS011;52992;52.084;5.412;2022-08-19T02:31:13;4.83;;;3.87;;
66189;SDS011;52992;52.084;5.412;2022-08-19T02:33:42;4.30;;;3.57;;
66189;SDS011;52992;52.084;5.412;2022-08-19T02:36:09;4.93;;;3.67;;
66189;SDS011;52992;52.084;5.412;2022-08-19T02:38:37;4.30;;;3.90;;
66189;SDS011;52992;52.084;5.412;2022-08-19T02:41:07;6.80;;;4.20;;
66189;SDS011;52992;52.084;5.412;2022-08-19T02:43:39;4.53;;;4.13;;
66189;SDS011;52992;52.084;5.412;2022-08-19T02:46:30;4.37;;;3.70;;
66189;SDS011;52992;52.084;5.412;2022-08-19T02:49:05;4.20;;;3.80;;
66189;SDS011;52992;52.084;5.412;2022-08-19T02:51:35;5.83;;;4.10;;
66189;SDS011;52992;52.084;5.412;2022-08-19T02:54:06;4.20;;;3.80;;
66189;SDS011;52992;52.084;5.412;2022-08-19T02:56:34;5.83;;;3.50;;
66189;SDS011;52992;52.084;5.412;2022-08-19T02:59:03;4.90;;;4.23;;
66189;SDS011;52992;52.084;5.412;2022-08-19T03:01:36;5.27;;;3.77;;
66189;SDS011;52992;52.084;5.412;2022-08-19T03:04:07;4.90;;;3.90;;
66189;SDS011;52992;52.084;5.412;2022-08-19T03:06:39;4.67;;;3.63;;
66189;SDS011;52992;52.084;5.412;2022-08-19T03:09:07;4.33;;;3.93;;
66189;SDS011;52992;52.084;5.412;2022-08-19T03:11:35;3.80;;;3.40;;
66189;SDS011;52992;52.084;5.412;2022-08-19T03:14:03;4.57;;;3.93;;
66189;SDS011;52992;52.084;5.412;2022-08-19T03:16:31;4.43;;;3.83;;
66189;SDS011;52992;52.084;5.412;2022-08-19T03:19:00;4.77;;;3.90;;
66189;SDS011;52992;52.084;5.412;2022-08-19T03:21:30;4.33;;;3.73;;
66189;SDS011;52992;52.084;5.412;2022-08-19T03:23:58;5.80;;;3.63;;
66189;SDS011;52992;52.084;5.412;2022-08-19T03:26:27;5.97;;;4.67;;
66189;SDS011;52992;52.084;5.412;2022-08-19T03:28:54;6.30;;;4.17;;
66189;SDS011;52992;52.084;5.412;2022-08-19T03:31:24;4.10;;;3.70;;
66189;SDS011;52992;52.084;5.412;2022-08-19T03:34:13;4.33;;;3.93;;
66189;SDS011;52992;52.084;5.412;2022-08-19T03:36:43;5.20;;;3.50;;
66189;SDS011;52992;52.084;5.412;2022-08-19T03:39:11;3.93;;;3.53;;
66189;SDS011;52992;52.084;5.412;2022-08-19T03:41:39;3.80;;;3.50;;
66189;SDS011;52992;52.084;5.412;2022-08-19T03:44:14;4.00;;;3.63;;
66189;SDS011;52992;52.084;5.412;2022-08-19T03:46:45;4.43;;;3.53;;
66189;SDS011;52992;52.084;5.412;2022-08-19T03:49:13;3.93;;;3.50;;
66189;SDS011;52992;52.084;5.412;2022-08-19T03:51:43;4.00;;;3.60;;
66189;SDS011;52992;52.084;5.412;2022-08-19T03:54:12;4.23;;;3.83;;
66189;SDS011;52992;52.084;5.412;2022-08-19T03:56:41;3.87;;;3.57;;
66189;SDS011;52992;52.084;5.412;2022-08-19T03:59:15;7.50;;;4.13;;
66189;SDS011;52992;52.084;5.412;2022-08-19T04:01:54;4.67;;;3.93;;
66189;SDS011;52992;52.084;5.412;2022-08-19T04:04:22;4.43;;;3.30;;
66189;SDS011;52992;52.084;5.412;2022-08-19T04:06:54;3.50;;;3.20;;
66189;SDS011;52992;52.084;5.412;2022-08-19T04:09:22;6.27;;;3.70;;
66189;SDS011;52992;52.084;5.412;2022-08-19T04:11:50;5.60;;;3.70;;
66189;SDS011;52992;52.084;5.412;2022-08-19T04:14:23;5.20;;;3.87;;
66189;SDS011;52992;52.084;5.412;2022-08-19T04:16:56;6.43;;;5.53;;
66189;SDS011;52992;52.084;5.412;2022-08-19T04:19:25;6.47;;;5.33;;
66189;SDS011;52992;52.084;5.412;2022-08-19T04:21:53;4.87;;;4.13;;
66189;SDS011;52992;52.084;5.412;2022-08-19T04:24:21;6.13;;;4.27;;
66189;SDS011;52992;52.084;5.412;2022-08-19T04:26:48;5.63;;;4.17;;
66189;SDS011;52992;52.084;5.412;2022-08-19T04:29:21;7.30;;;4.67;;
66189;SDS011;52992;52.084;5.412;2022-08-19T04:31:51;4.70;;;4.23;;
66189;SDS011;52992;52.084;5.412;2022-08-19T04:34:20;5.30;;;3.93;;
66189;SDS011;52992;52.084;5.412;2022-08-19T04:36:49;5.00;;;3.60;;
66189;SDS011;52992;52.084;5.412;2022-08-19T04:39:19;5.50;;;3.50;;
66189;SDS011;52992;52.084;5.412;2022-08-19T04:41:47;3.23;;;2.93;;
66189;SDS011;52992;52.084;5.412;2022-08-19T04:44:34;4.57;;;3.10;;
66189;SDS011;52992;52.084;5.412;2022-08-19T04:47:11;3.13;;;2.90;;
66189;SDS011;52992;52.084;5.412;2022-08-19T04:49:38;2.93;;;2.63;;
66189;SDS011;52992;52.084;5.412;2022-08-19T04:52:05;3.27;;;2.73;;
66189;SDS011;52992;52.084;5.412;2022-08-19T04:54:32;3.83;;;2.80;;
66189;SDS011;52992;52.084;5.412;2022-08-19T04:57:05;3.23;;;2.93;;
66189;SDS011;52992;52.084;5.412;2022-08-19T04:59:35;4.50;;;2.90;;
66189;SDS011;52992;52.084;5.412;2022-08-19T05:02:03;4.57;;;2.97;;
66189;SDS011;52992;52.084;5.412;2022-08-19T05:04:30;3.10;;;2.80;;
66189;SDS011;52992;52.084;5.412;2022-08-19T05:06:59;3.40;;;3.10;;
66189;SDS011;52992;52.084;5.412;2022-08-19T05:09:28;4.00;;;3.20;;
66189;SDS011;52992;52.084;5.412;2022-08-19T05:12:15;4.70;;;3.93;;
66189;SDS011;52992;52.084;5.412;2022-08-19T05:14:43;5.43;;;3.90;;
66189;SDS011;52992;52.084;5.412;2022-08-19T05:17:11;5.77;;;5.10;;
66189;SDS011;52992;52.084;5.412;2022-08-19T05:19:58;6.07;;;5.00;;
66189;SDS011;52992;52.084;5.412;2022-08-19T05:22:44;6.13;;;4.97;;
66189;SDS011;52992;52.084;5.412;2022-08-19T05:25:14;7.97;;;5.83;;
66189;SDS011;52992;52.084;5.412;2022-08-19T05:27:47;8.03;;;5.80;;
66189;SDS011;52992;52.084;5.412;2022-08-19T05:30:14;9.47;;;6.10;;
66189;SDS011;52992;52.084;5.412;2022-08-19T05:32:42;8.67;;;6.53;;
66189;SDS011;52992;52.084;5.412;2022-08-19T05:35:09;9.33;;;6.87;;
66189;SDS011;52992;52.084;5.412;2022-08-19T05:37:38;12.23;;;8.57;;
66189;SDS011;52992;52.084;5.412;2022-08-19T05:40:07;11.90;;;7.93;;
66189;SDS011;52992;52.084;5.412;2022-08-19T05:42:34;12.53;;;8.33;;
66189;SDS011;52992;52.084;5.412;2022-08-19T05:45:01;14.83;;;9.60;;
66189;SDS011;52992;52.084;5.412;2022-08-19T05:47:29;16.90;;;10.27;;
66189;SDS011;52992;52.084;5.412;2022-08-19T05:49:55;27.40;;;14.23;;
66189;SDS011;52992;52.084;5.412;2022-08-19T05:52:22;19.40;;;12.50;;
66189;SDS011;52992;52.084;5.412;2022-08-19T05:54:52;20.67;;;12.73;;
66189;SDS011;52992;52.084;5.412;2022-08-19T05:57:21;21.43;;;13.07;;
66189;SDS011;52992;52.084;5.412;2022-08-19T05:59:48;25.10;;;13.13;;
66189;SDS011;52992;52.084;5.412;2022-08-19T06:02:23;22.77;;;13.03;;
66189;SDS011;52992;52.084;5.412;2022-08-19T06:04:57;23.93;;;14.23;;
66189;SDS011;52992;52.084;5.412;2022-08-19T06:07:24;24.67;;;14.57;;
66189;SDS011;52992;52.084;5.412;2022-08-19T06:09:51;25.30;;;14.30;;
66189;SDS011;52992;52.084;5.412;2022-08-19T06:12:29;26.87;;;15.80;;
66189;SDS011;52992;52.084;5.412;2022-08-19T06:14:59;29.17;;;16.90;;
66189;SDS011;52992;52.084;5.412;2022-08-19T06:17:31;26.00;;;14.87;;
66189;SDS011;52992;52.084;5.412;2022-08-19T06:20:02;35.83;;;17.83;;
66189;SDS011;52992;52.084;5.412;2022-08-19T06:22:29;28.00;;;16.23;;
66189;SDS011;52992;52.084;5.412;2022-08-19T06:24:56;35.80;;;18.90;;
66189;SDS011;52992;52.084;5.412;2022-08-19T06:27:23;30.03;;;17.23;;
66189;SDS011;52992;52.084;5.412;2022-08-19T06:29:50;35.23;;;20.67;;
66189;SDS011;52992;52.084;5.412;2022-08-19T06:32:17;37.07;;;20.53;;
66189;SDS011;52992;52.084;5.412;2022-08-19T06:34:45;35.13;;;19.73;;
66189;SDS011;52992;52.084;5.412;2022-08-19T06:37:12;40.53;;;23.33;;
66189;SDS011;52992;52.084;5.412;2022-08-19T06:39:40;43.53;;;23.67;;
66189;SDS011;52992;52.084;5.412;2022-08-19T06:42:09;41.17;;;23.97;;
66189;SDS011;52992;52.084;5.412;2022-08-19T06:44:43;46.57;;;25.57;;
66189;SDS011;52992;52.084;5.412;2022-08-19T06:47:18;52.63;;;27.23;;
66189;SDS011;52992;52.084;5.412;2022-08-19T06:49:52;57.03;;;28.70;;
66189;SDS011;52992;52.084;5.412;2022-08-19T06:52:26;55.10;;;28.30;;
66189;SDS011;52992;52.084;5.412;2022-08-19T06:54:53;54.80;;;27.60;;
66189;SDS011;52992;52.084;5.412;2022-08-19T06:57:25;57.00;;;27.20;;
66189;SDS011;52992;52.084;5.412;2022-08-19T06:59:53;46.43;;;24.27;;
66189;SDS011;52992;52.084;5.412;2022-08-19T07:02:22;50.70;;;25.00;;
66189;SDS011;52992;52.084;5.412;2022-08-19T07:04:52;53.17;;;26.80;;
66189;SDS011;52992;52.084;5.412;2022-08-19T07:07:20;48.20;;;25.30;;
66189;SDS011;52992;52.084;5.412;2022-08-19T07:09:50;55.67;;;26.13;;
66189;SDS011;52992;52.084;5.412;2022-08-19T07:12:29;57.87;;;28.83;;
66189;SDS011;52992;52.084;5.412;2022-08-19T07:15:00;48.43;;;26.13;;
66189;SDS011;52992;52.084;5.412;2022-08-19T07:17:29;52.83;;;28.00;;
66189;SDS011;52992;52.084;5.412;2022-08-19T07:19:59;51.20;;;27.80;;
66189;SDS011;52992;52.084;5.412;2022-08-19T07:22:34;53.43;;;29.10;;
66189;SDS011;52992;52.084;5.412;2022-08-19T07:25:01;51.87;;;26.40;;
66189;SDS011;52992;52.084;5.412;2022-08-19T07:27:29;54.20;;;28.13;;
66189;SDS011;52992;52.084;5.412;2022-08-19T07:29:59;54.00;;;29.50;;
66189;SDS011;52992;52.084;5.412;2022-08-19T07:32:26;53.20;;;28.13;;
66189;SDS011;52992;52.084;5.412;2022-08-19T07:34:53;55.53;;;29.27;;
66189;SDS011;52992;52.084;5.412;2022-08-19T07:37:22;62.07;;;30.03;;
66189;SDS011;52992;52.084;5.412;2022-08-19T07:39:58;50.57;;;26.90;;
66189;SDS011;52992;52.084;5.412;2022-08-19T07:42:25;50.40;;;26.93;;
66189;SDS011;52992;52.084;5.412;2022-08-19T07:44:52;49.93;;;27.37;;
66189;SDS011;52992;52.084;5.412;2022-08-19T07:47:19;48.60;;;26.47;;
66189;SDS011;52992;52.084;5.412;2022-08-19T07:50:07;50.87;;;27.13;;
66189;SDS011;52992;52.084;5.412;2022-08-19T07:52:36;46.77;;;24.07;;
66189;SDS011;52992;52.084;5.412;2022-08-19T07:55:06;46.17;;;24.20;;
66189;SDS011;52992;52.084;5.412;2022-08-19T07:57:54;44.73;;;24.87;;
66189;SDS011;52992;52.084;5.412;2022-08-19T08:00:21;51.00;;;25.97;;
66189;SDS011;52992;52.084;5.412;2022-08-19T08:02:49;43.93;;;24.77;;
66189;SDS011;52992;52.084;5.412;2022-08-19T08:05:20;43.60;;;26.40;;
66189;SDS011;52992;52.084;5.412;2022-08-19T08:08:09;46.47;;;25.37;;
66189;SDS011;52992;52.084;5.412;2022-08-19T08:10:57;44.57;;;25.27;;
66189;SDS011;52992;52.084;5.412;2022-08-19T08:13:25;37.60;;;22.70;;
66189;SDS011;52992;52.084;5.412;2022-08-19T08:15:53;38.77;;;23.63;;
66189;SDS011;52992;52.084;5.412;2022-08-19T08:18:21;37.27;;;21.50;;
66189;SDS011;52992;52.084;5.412;2022-08-19T08:20:53;45.70;;;24.93;;
66189;SDS011;52992;52.084;5.412;2022-08-19T08:23:24;35.93;;;22.23;;
66189;SDS011;52992;52.084;5.412;2022-08-19T08:25:53;37.27;;;22.53;;
66189;SDS011;52992;52.084;5.412;2022-08-19T08:28:23;36.57;;;20.90;;
66189;SDS011;52992;52.084;5.412;2022-08-19T08:30:51;34.77;;;21.43;;
66189;SDS011;52992;52.084;5.412;2022-08-19T08:33:22;34.17;;;21.07;;
66189;SDS011;52992;52.084;5.412;2022-08-19T08:35:59;37.13;;;21.83;;
66189;SDS011;52992;52.084;5.412;2022-08-19T08:38:33;35.37;;;20.07;;
66189;SDS011;52992;52.084;5.412;2022-08-19T08:41:11;35.73;;;19.90;;
66189;SDS011;52992;52.084;5.412;2022-08-19T08:43:40;33.90;;;19.67;;
66189;SDS011;52992;52.084;5.412;2022-08-19T08:46:15;29.70;;;18.03;;
66189;SDS011;52992;52.084;5.412;2022-08-19T08:49:40;31.27;;;19.43;;
66189;SDS011;52992;52.084;5.412;2022-08-19T08:52:06;32.23;;;18.77;;
66189;SDS011;52992;52.084;5.412;2022-08-19T08:54:39;33.77;;;18.77;;
66189;SDS011;52992;52.084;5.412;2022-08-19T08:57:28;30.60;;;18.40;;
66189;SDS011;52992;52.084;5.412;2022-08-19T09:00:10;28.97;;;18.70;;
66189;SDS011;52992;52.084;5.412;2022-08-19T09:02:41;31.07;;;19.03;;
66189;SDS011;52992;52.084;5.412;2022-08-19T09:05:10;26.23;;;17.43;;
66189;SDS011;52992;52.084;5.412;2022-08-19T09:10:46;25.30;;;17.23;;
66189;SDS011;52992;52.084;5.412;2022-08-19T09:13:24;28.53;;;17.23;;
66189;SDS011;52992;52.084;5.412;2022-08-19T09:15:56;27.03;;;17.87;;
66189;SDS011;52992;52.084;5.412;2022-08-19T09:18:47;29.77;;;17.60;;
66189;SDS011;52992;52.084;5.412;2022-08-19T09:21:20;31.40;;;16.07;;
66189;SDS011;52992;52.084;5.412;2022-08-19T09:23:59;26.80;;;16.33;;
66189;SDS011;52992;52.084;5.412;2022-08-19T09:26:29;25.60;;;15.50;;
66189;SDS011;52992;52.084;5.412;2022-08-19T09:29:18;21.10;;;14.47;;
66189;SDS011;52992;52.084;5.412;2022-08-19T09:31:48;22.33;;;14.73;;
66189;SDS011;52992;52.084;5.412;2022-08-19T09:34:16;23.50;;;14.53;;
66189;SDS011;52992;52.084;5.412;2022-08-19T09:36:47;18.57;;;13.40;;
66189;SDS011;52992;52.084;5.412;2022-08-19T09:39:16;25.23;;;15.80;;
66189;SDS011;52992;52.084;5.412;2022-08-19T09:41:43;21.03;;;14.70;;
66189;SDS011;52992;52.084;5.412;2022-08-19T09:44:14;20.03;;;13.13;;
66189;SDS011;52992;52.084;5.412;2022-08-19T09:46:41;17.23;;;13.17;;
66189;SDS011;52992;52.084;5.412;2022-08-19T09:49:09;18.67;;;13.33;;
66189;SDS011;52992;52.084;5.412;2022-08-19T09:51:38;21.80;;;13.87;;
66189;SDS011;52992;52.084;5.412;2022-08-19T09:54:06;18.80;;;13.03;;
66189;SDS011;52992;52.084;5.412;2022-08-19T09:56:36;22.90;;;14.03;;
66189;SDS011;52992;52.084;5.412;2022-08-19T09:59:03;20.87;;;14.20;;
66189;SDS011;52992;52.084;5.412;2022-08-19T10:01:30;18.67;;;12.70;;
66189;SDS011;52992;52.084;5.412;2022-08-19T10:03:59;21.63;;;15.20;;
66189;SDS011;52992;52.084;5.412;2022-08-19T10:06:34;19.07;;;13.73;;
66189;SDS011;52992;52.084;5.412;2022-08-19T10:09:12;19.90;;;14.20;;
66189;SDS011;52992;52.084;5.412;2022-08-19T10:11:41;18.93;;;13.23;;
66189;SDS011;52992;52.084;5.412;2022-08-19T10:14:20;23.93;;;15.70;;
66189;SDS011;52992;52.084;5.412;2022-08-19T10:16:50;22.90;;;16.27;;
66189;SDS011;52992;52.084;5.412;2022-08-19T10:19:18;20.73;;;15.20;;
66189;SDS011;52992;52.084;5.412;2022-08-19T10:21:52;20.00;;;13.87;;
66189;SDS011;52992;52.084;5.412;2022-08-19T10:24:25;21.53;;;15.63;;
66189;SDS011;52992;52.084;5.412;2022-08-19T10:26:54;21.70;;;15.20;;
66189;SDS011;52992;52.084;5.412;2022-08-19T10:29:24;23.40;;;15.97;;
66189;SDS011;52992;52.084;5.412;2022-08-19T10:31:58;25.50;;;16.90;;
66189;SDS011;52992;52.084;5.412;2022-08-19T10:34:29;21.90;;;14.87;;
66189;SDS011;52992;52.084;5.412;2022-08-19T10:36:57;23.87;;;15.33;;
66189;SDS011;52992;52.084;5.412;2022-08-19T10:39:27;21.20;;;15.90;;
66189;SDS011;52992;52.084;5.412;2022-08-19T10:42:08;21.90;;;16.27;;
66189;SDS011;52992;52.084;5.412;2022-08-19T10:44:36;23.13;;;16.73;;
66189;SDS011;52992;52.084;5.412;2022-08-19T10:47:03;24.80;;;18.43;;
66189;SDS011;52992;52.084;5.412;2022-08-19T10:49:50;23.93;;;18.10;;
66189;SDS011;52992;52.084;5.412;2022-08-19T10:52:37;28.77;;;19.40;;
66189;SDS011;52992;52.084;5.412;2022-08-19T10:55:16;29.47;;;20.93;;
66189;SDS011;52992;52.084;5.412;2022-08-19T10:58:03;30.73;;;21.50;;
66189;SDS011;52992;52.084;5.412;2022-08-19T11:00:36;29.20;;;22.03;;
66189;SDS011;52992;52.084;5.412;2022-08-19T11:03:03;31.63;;;21.03;;
66189;SDS011;52992;52.084;5.412;2022-08-19T11:05:30;32.27;;;21.83;;
66189;SDS011;52992;52.084;5.412;2022-08-19T11:08:05;27.47;;;20.47;;
66189;SDS011;52992;52.084;5.412;2022-08-19T11:10:49;32.57;;;22.03;;
66189;SDS011;52992;52.084;5.412;2022-08-19T11:13:19;29.17;;;20.33;;
66189;SDS011;52992;52.084;5.412;2022-08-19T11:15:47;29.23;;;21.27;;
66189;SDS011;52992;52.084;5.412;2022-08-19T11:18:13;30.47;;;21.27;;
66189;SDS011;52992;52.084;5.412;2022-08-19T11:20:40;28.37;;;21.23;;
66189;SDS011;52992;52.084;5.412;2022-08-19T11:23:07;32.20;;;21.77;;
66189;SDS011;52992;52.084;5.412;2022-08-19T11:25:34;30.97;;;21.17;;
66189;SDS011;52992;52.084;5.412;2022-08-19T11:28:04;28.30;;;21.03;;
66189;SDS011;52992;52.084;5.412;2022-08-19T11:30:31;31.30;;;20.17;;
66189;SDS011;52992;52.084;5.412;2022-08-19T11:32:59;29.10;;;21.20;;
66189;SDS011;52992;52.084;5.412;2022-08-19T11:35:27;33.60;;;22.20;;
66189;SDS011;52992;52.084;5.412;2022-08-19T11:37:54;35.63;;;21.20;;
66189;SDS011;52992;52.084;5.412;2022-08-19T11:40:22;36.20;;;22.93;;
66189;SDS011;52992;52.084;5.412;2022-08-19T11:42:49;31.50;;;21.90;;
66189;SDS011;52992;52.084;5.412;2022-08-19T11:45:26;35.60;;;22.40;;
66189;SDS011;52992;52.084;5.412;2022-08-19T11:47:54;26.33;;;19.53;;
66189;SDS011;52992;52.084;5.412;2022-08-19T11:50:22;28.30;;;19.75;;
66189;SDS011;52992;52.084;5.412;2022-08-19T11:52:49;28.25;;;21.00;;
66189;SDS011;52992;52.084;5.412;2022-08-19T11:55:20;27.88;;;20.00;;
66189;SDS011;52992;52.084;5.412;2022-08-19T11:57:47;27.58;;;19.42;;
66189;SDS011;52992;52.084;5.412;2022-08-19T12:00:14;30.55;;;22.67;;
66189;SDS011;52992;52.084;5.412;2022-08-19T12:02:41;29.80;;;20.42;;
66189;SDS011;52992;52.084;5.412;2022-08-19T12:05:08;31.48;;;20.80;;
66189;SDS011;52992;52.084;5.412;2022-08-19T12:07:38;31.42;;;21.27;;
66189;SDS011;52992;52.084;5.412;2022-08-19T12:10:07;27.42;;;19.88;;
66189;SDS011;52992;52.084;5.412;2022-08-19T12:12:35;27.55;;;21.05;;
66189;SDS011;52992;52.084;5.412;2022-08-19T12:15:09;27.35;;;19.85;;
66189;SDS011;52992;52.084;5.412;2022-08-19T12:17:37;26.48;;;19.88;;
66189;SDS011;52992;52.084;5.412;2022-08-19T12:20:04;27.08;;;19.83;;
66189;SDS011;52992;52.084;5.412;2022-08-19T12:22:32;24.58;;;18.90;;
66189;SDS011;52992;52.084;5.412;2022-08-19T12:24:59;27.95;;;19.65;;
66189;SDS011;52992;52.084;5.412;2022-08-19T12:27:27;33.22;;;23.27;;
66189;SDS011;52992;52.084;5.412;2022-08-19T12:30:07;30.33;;;21.30;;
66189;SDS011;52992;52.084;5.412;2022-08-19T12:32:37;24.03;;;18.83;;
66189;SDS011;52992;52.084;5.412;2022-08-19T12:35:05;25.30;;;18.23;;
66189;SDS011;52992;52.084;5.412;2022-08-19T12:37:33;26.53;;;18.27;;
66189;SDS011;52992;52.084;5.412;2022-08-19T12:40:00;22.40;;;18.60;;
66189;SDS011;52992;52.084;5.412;2022-08-19T12:42:27;24.70;;;17.83;;
66189;SDS011;52992;52.084;5.412;2022-08-19T12:44:54;20.10;;;17.67;;
66189;SDS011;52992;52.084;5.412;2022-08-19T12:47:21;23.87;;;17.10;;
66189;SDS011;52992;52.084;5.412;2022-08-19T12:49:48;20.93;;;17.87;;
66189;SDS011;52992;52.084;5.412;2022-08-19T12:52:21;20.57;;;16.10;;
66189;SDS011;52992;52.084;5.412;2022-08-19T12:54:49;19.90;;;15.30;;
66189;SDS011;52992;52.084;5.412;2022-08-19T12:57:20;26.30;;;18.33;;
66189;SDS011;52992;52.084;5.412;2022-08-19T12:59:59;21.30;;;15.70;;
66189;SDS011;52992;52.084;5.412;2022-08-19T13:02:30;21.90;;;14.23;;
66189;SDS011;52992;52.084;5.412;2022-08-19T13:05:04;15.53;;;12.67;;
66189;SDS011;52992;52.084;5.412;2022-08-19T13:07:34;16.33;;;13.20;;
66189;SDS011;52992;52.084;5.412;2022-08-19T13:10:01;15.20;;;12.20;;
66189;SDS011;52992;52.084;5.412;2022-08-19T13:12:28;13.73;;;11.27;;
66189;SDS011;52992;52.084;5.412;2022-08-19T13:14:55;15.97;;;12.20;;
66189;SDS011;52992;52.084;5.412;2022-08-19T13:17:22;14.60;;;11.33;;
66189;SDS011;52992;52.084;5.412;2022-08-19T13:19:49;17.43;;;10.47;;
66189;SDS011;52992;52.084;5.412;2022-08-19T13:22:17;11.27;;;10.10;;
66189;SDS011;52992;52.084;5.412;2022-08-19T13:24:44;12.10;;;10.50;;
66189;SDS011;52992;52.084;5.412;2022-08-19T13:27:12;14.87;;;11.23;;
66189;SDS011;52992;52.084;5.412;2022-08-19T13:29:43;16.07;;;12.23;;
66189;SDS011;52992;52.084;5.412;2022-08-19T13:32:29;12.63;;;11.33;;
66189;SDS011;52992;52.084;5.412;2022-08-19T13:35:15;13.07;;;11.57;;
66189;SDS011;52992;52.084;5.412;2022-08-19T13:37:43;18.47;;;13.87;;
66189;SDS011;52992;52.084;5.412;2022-08-19T13:40:13;13.37;;;11.07;;
66189;SDS011;52992;52.084;5.412;2022-08-19T13:42:46;13.07;;;11.67;;
66189;SDS011;52992;52.084;5.412;2022-08-19T13:45:18;16.13;;;11.80;;
66189;SDS011;52992;52.084;5.412;2022-08-19T13:47:49;15.93;;;11.50;;
66189;SDS011;52992;52.084;5.412;2022-08-19T13:50:25;17.63;;;12.37;;
66189;SDS011;52992;52.084;5.412;2022-08-19T13:52:54;22.60;;;15.00;;
66189;SDS011;52992;52.084;5.412;2022-08-19T13:55:22;20.10;;;13.70;;
66189;SDS011;52992;52.084;5.412;2022-08-19T13:57:57;19.67;;;13.07;;
66189;SDS011;52992;52.084;5.412;2022-08-19T14:00:27;15.23;;;11.67;;
66189;SDS011;52992;52.084;5.412;2022-08-19T14:02:57;16.70;;;13.13;;
66189;SDS011;52992;52.084;5.412;2022-08-19T14:05:25;14.97;;;11.17;;
66189;SDS011;52992;52.084;5.412;2022-08-19T14:07:53;14.43;;;12.33;;
66189;SDS011;52992;52.084;5.412;2022-08-19T14:10:21;16.30;;;12.37;;
66189;SDS011;52992;52.084;5.412;2022-08-19T14:12:52;17.60;;;12.67;;
66189;SDS011;52992;52.084;5.412;2022-08-19T14:15:21;22.20;;;13.13;;
66189;SDS011;52992;52.084;5.412;2022-08-19T14:17:49;16.03;;;11.70;;
66189;SDS011;52992;52.084;5.412;2022-08-19T14:20:17;14.83;;;11.60;;
66189;SDS011;52992;52.084;5.412;2022-08-19T14:22:45;12.60;;;10.40;;
66189;SDS011;52992;52.084;5.412;2022-08-19T14:25:15;13.93;;;9.63;;
66189;SDS011;52992;52.084;5.412;2022-08-19T14:27:44;13.87;;;9.77;;
66189;SDS011;52992;52.084;5.412;2022-08-19T14:30:12;12.73;;;10.20;;
66189;SDS011;52992;52.084;5.412;2022-08-19T14:32:41;15.73;;;10.03;;
66189;SDS011;52992;52.084;5.412;2022-08-19T14:35:10;14.37;;;11.10;;
66189;SDS011;52992;52.084;5.412;2022-08-19T14:37:39;12.27;;;9.40;;
66189;SDS011;52992;52.084;5.412;2022-08-19T14:40:12;12.20;;;9.73;;
66189;SDS011;52992;52.084;5.412;2022-08-19T14:42:44;11.93;;;9.33;;
66189;SDS011;52992;52.084;5.412;2022-08-19T14:45:11;11.43;;;9.13;;
66189;SDS011;52992;52.084;5.412;2022-08-19T14:47:38;16.03;;;10.53;;
66189;SDS011;52992;52.084;5.412;2022-08-19T14:50:15;12.67;;;10.47;;
66189;SDS011;52992;52.084;5.412;2022-08-19T14:52:44;11.77;;;10.10;;
66189;SDS011;52992;52.084;5.412;2022-08-19T14:55:12;11.03;;;9.73;;
66189;SDS011;52992;52.084;5.412;2022-08-19T14:57:40;10.67;;;9.57;;